Butler, Tennessee
Current Conditions -  °F | °C
As of 8:35 AM on Tuesday 21 Oct 2014 (Local Time) from K0A9 Reporting Station
Overcast Overcast  
Wind Chill: 54°   Ceiling: 3200
Heat Index: 54°   Visibility: 10mi
Dew Point: 48°   Wind: 3mph
Humidity: 82%   Direction: 290°WNW
Pressure: 29.99"   Gusts: NA
Location:  36.35°N, 82.03°W
Report Text: K0A9 211235Z AUTO 29003KT 10SM SCT025 OVC032 12/09 A2999 RMK
Loading
Personal Weather Stations






























Interactive Weather Map
Tropical Storm Tracking
New forecast layout! Learn more

10-Day Weather Forecast

Advertisements
Track Severe Weather on mobile